createdAt,value
2018-06-14T00:00:10.465Z,16.63
2018-06-14T00:02:39.098Z,16.61
2018-06-14T00:05:07.701Z,16.59
2018-06-14T00:07:36.469Z,16.58
2018-06-14T00:10:05.077Z,16.53
2018-06-14T00:12:33.857Z,16.51
2018-06-14T00:15:02.459Z,16.48
2018-06-14T00:17:31.108Z,16.47
2018-06-14T00:19:59.686Z,16.45
2018-06-14T00:22:28.277Z,16.44
2018-06-14T00:24:56.838Z,16.43
2018-06-14T00:27:25.434Z,16.41
2018-06-14T00:29:54.081Z,16.41
2018-06-14T00:32:22.972Z,16.38
2018-06-14T00:34:52.072Z,16.36
2018-06-14T00:37:20.595Z,16.32
2018-06-14T00:39:49.173Z,16.28
2018-06-14T00:42:17.827Z,16.23
2018-06-14T00:44:46.568Z,16.20
2018-06-14T00:47:15.426Z,16.19
2018-06-14T00:49:44.341Z,16.18
2018-06-14T00:52:13.105Z,16.16
2018-06-14T00:54:41.874Z,16.13
2018-06-14T00:57:21.531Z,16.14
2018-06-14T00:59:50.260Z,16.12
2018-06-14T01:02:18.955Z,16.08
2018-06-14T01:04:47.779Z,16.09
2018-06-14T01:07:16.448Z,16.08
2018-06-14T01:09:45.132Z,16.07
2018-06-14T01:12:13.937Z,16.06
2018-06-14T01:14:42.593Z,16.05
2018-06-14T01:17:11.444Z,16.04
2018-06-14T01:19:40.310Z,16.03
2018-06-14T01:22:08.956Z,15.98
2018-06-14T01:24:37.693Z,15.98
2018-06-14T01:27:09.089Z,15.95
2018-06-14T01:29:37.875Z,15.93
2018-06-14T01:32:06.479Z,15.90
2018-06-14T01:34:35.015Z,15.88
2018-06-14T01:37:03.505Z,15.87
2018-06-14T01:39:32.136Z,15.84
2018-06-14T01:42:00.640Z,15.83
2018-06-14T01:44:29.183Z,15.81
2018-06-14T01:46:58.085Z,15.80
2018-06-14T01:49:26.730Z,15.79
2018-06-14T01:51:55.267Z,15.78
2018-06-14T01:54:23.892Z,15.76
2018-06-14T01:56:52.505Z,15.72
2018-06-14T01:59:21.046Z,15.71
2018-06-14T02:01:49.697Z,15.68
2018-06-14T02:04:18.247Z,15.67
2018-06-14T02:06:46.909Z,15.65
2018-06-14T02:09:15.752Z,15.65
2018-06-14T02:11:44.587Z,15.65
2018-06-14T02:14:13.287Z,15.66
2018-06-14T02:16:42.090Z,15.67
2018-06-14T02:19:10.717Z,15.65
2018-06-14T02:21:39.351Z,15.65
2018-06-14T02:24:08.008Z,15.63
2018-06-14T02:26:36.652Z,15.62
2018-06-14T02:29:05.320Z,15.61
2018-06-14T02:31:33.924Z,15.61
2018-06-14T02:34:02.802Z,15.59
2018-06-14T02:36:31.615Z,15.57
2018-06-14T02:39:00.310Z,15.54
2018-06-14T02:41:28.978Z,15.51
2018-06-14T02:43:57.747Z,15.47
2018-06-14T02:46:27.139Z,15.43
2018-06-14T02:48:55.915Z,15.41
2018-06-14T02:51:24.531Z,15.38
2018-06-14T02:53:53.343Z,15.34
2018-06-14T02:56:22.097Z,15.33
2018-06-14T02:58:50.720Z,15.33
2018-06-14T03:01:19.401Z,15.32
2018-06-14T03:03:48.030Z,15.34
2018-06-14T03:06:16.659Z,15.33
2018-06-14T03:08:45.335Z,15.34
2018-06-14T03:11:13.988Z,15.37
2018-06-14T03:13:42.617Z,15.39
2018-06-14T03:16:11.262Z,15.37
2018-06-14T03:18:39.851Z,15.37
2018-06-14T03:21:08.569Z,15.36
2018-06-14T03:23:37.258Z,15.38
2018-06-14T03:26:06.033Z,15.38
2018-06-14T03:28:35.653Z,15.35
2018-06-14T03:31:04.392Z,15.40
2018-06-14T03:33:33.027Z,15.41
2018-06-14T03:36:01.747Z,15.39
2018-06-14T03:38:30.467Z,15.39
2018-06-14T03:40:59.199Z,15.40
2018-06-14T03:43:28.053Z,15.41
2018-06-14T03:45:56.828Z,15.44
2018-06-14T03:48:25.643Z,15.46
2018-06-14T03:50:54.341Z,15.50
2018-06-14T03:53:23.045Z,15.52
2018-06-14T03:55:51.788Z,15.52
2018-06-14T03:58:20.455Z,15.55
2018-06-14T04:00:49.278Z,15.56
2018-06-14T04:03:17.894Z,15.60
2018-06-14T04:05:46.618Z,15.66
2018-06-14T04:08:15.260Z,15.69
2018-06-14T04:10:43.880Z,15.74
2018-06-14T04:13:12.479Z,15.76
2018-06-14T04:15:41.302Z,15.80
2018-06-14T04:18:09.946Z,15.83
2018-06-14T04:20:38.728Z,15.88
2018-06-14T04:23:07.402Z,15.90
2018-06-14T04:25:36.061Z,15.94
2018-06-14T04:28:04.701Z,15.99
2018-06-14T04:30:33.335Z,16.04
2018-06-14T04:33:02.211Z,16.07
2018-06-14T04:35:31.136Z,16.13
2018-06-14T04:38:00.053Z,16.19
2018-06-14T04:40:28.989Z,16.27
2018-06-14T04:42:58.059Z,16.32
2018-06-14T04:45:27.347Z,16.38
2018-06-14T04:47:56.478Z,16.46
2018-06-14T04:50:25.524Z,16.52
2018-06-14T04:52:54.636Z,16.58
2018-06-14T04:55:23.312Z,16.65
2018-06-14T04:57:52.168Z,16.69
2018-06-14T05:00:20.972Z,16.72
2018-06-14T05:02:49.706Z,16.73
2018-06-14T05:05:18.527Z,16.78
2018-06-14T05:07:47.330Z,16.83
2018-06-14T05:10:16.860Z,16.87
2018-06-14T05:12:45.498Z,16.92
2018-06-14T05:15:14.237Z,17.00
2018-06-14T05:17:42.835Z,17.09
2018-06-14T05:20:11.526Z,17.18
2018-06-14T05:22:40.212Z,17.31
2018-06-14T05:25:09.678Z,17.40
2018-06-14T05:27:38.326Z,17.52
2018-06-14T05:30:07.147Z,17.65
2018-06-14T05:32:35.808Z,17.77
2018-06-14T05:35:04.495Z,17.88
2018-06-14T05:37:33.222Z,18.02
2018-06-14T05:40:01.866Z,18.16
2018-06-14T05:42:30.693Z,18.32
2018-06-14T05:44:59.316Z,18.50
2018-06-14T05:47:27.980Z,18.74
2018-06-14T05:49:56.551Z,19.10
2018-06-14T05:52:25.176Z,19.60
2018-06-14T05:54:53.930Z,20.01
2018-06-14T05:57:22.593Z,20.37
2018-06-14T05:59:51.225Z,20.76
2018-06-14T06:02:19.852Z,21.20
2018-06-14T06:04:48.568Z,21.65
2018-06-14T06:07:17.292Z,22.08
2018-06-14T06:09:45.960Z,22.42
2018-06-14T06:12:14.657Z,22.70
2018-06-14T06:14:44.000Z,22.88
2018-06-14T06:17:12.600Z,23.08
2018-06-14T06:19:41.184Z,23.16
2018-06-14T06:22:09.830Z,23.31
2018-06-14T06:24:38.665Z,23.50
2018-06-14T06:27:07.715Z,23.73
2018-06-14T06:29:38.887Z,24.00
2018-06-14T06:32:08.480Z,24.20
2018-06-14T06:34:37.159Z,24.52
2018-06-14T06:37:05.749Z,24.84
2018-06-14T06:39:34.299Z,25.01
2018-06-14T06:42:02.837Z,25.16
2018-06-14T06:44:31.438Z,25.26
2018-06-14T06:47:00.016Z,25.46
2018-06-14T06:49:28.944Z,25.55
2018-06-14T06:51:57.423Z,25.67
2018-06-14T06:54:26.007Z,25.74
2018-06-14T06:56:54.562Z,25.86
2018-06-14T06:59:23.236Z,26.05
2018-06-14T07:01:51.809Z,26.12
2018-06-14T07:04:20.644Z,26.33
2018-06-14T07:06:49.231Z,26.46
2018-06-14T07:09:17.864Z,26.54
2018-06-14T07:11:46.574Z,26.85
2018-06-14T07:14:15.252Z,27.13
2018-06-14T07:16:44.044Z,27.54
2018-06-14T07:19:12.832Z,27.73
2018-06-14T07:21:41.614Z,27.81
2018-06-14T07:24:10.586Z,28.00
2018-06-14T07:26:39.443Z,28.07
2018-06-14T07:29:08.180Z,28.41
2018-06-14T07:31:37.225Z,28.64
2018-06-14T07:34:05.932Z,28.69
2018-06-14T07:36:34.714Z,28.85
2018-06-14T07:39:03.925Z,29.07
2018-06-14T07:41:32.455Z,29.51
2018-06-14T07:44:00.967Z,29.85
2018-06-14T07:46:29.818Z,29.98
2018-06-14T07:48:58.921Z,30.17
2018-06-14T07:51:27.757Z,30.44
2018-06-14T07:53:56.602Z,30.73
2018-06-14T07:56:25.375Z,30.82
2018-06-14T07:58:54.075Z,31.08
2018-06-14T08:01:22.682Z,31.06
2018-06-14T08:03:51.497Z,30.92
2018-06-14T08:06:21.952Z,30.84
2018-06-14T08:08:50.624Z,31.10
2018-06-14T08:11:19.402Z,31.24
2018-06-14T08:13:48.295Z,31.49
2018-06-14T08:16:17.079Z,31.92
2018-06-14T08:18:45.758Z,32.14
2018-06-14T08:21:14.348Z,32.24
2018-06-14T08:23:43.026Z,31.95
2018-06-14T08:26:11.685Z,31.30
2018-06-14T08:28:40.306Z,30.73
2018-06-14T08:31:08.932Z,30.59
2018-06-14T08:33:37.612Z,30.90
2018-06-14T08:36:06.128Z,31.27
2018-06-14T08:38:35.575Z,31.36
2018-06-14T08:41:04.758Z,30.92
2018-06-14T08:43:33.622Z,30.93
2018-06-14T08:46:02.445Z,31.12
2018-06-14T08:48:31.198Z,31.67
2018-06-14T08:51:00.018Z,32.35
2018-06-14T08:53:28.802Z,33.05
2018-06-14T08:55:57.559Z,33.13
2018-06-14T08:58:26.214Z,33.36
2018-06-14T09:00:54.822Z,33.18
2018-06-14T09:03:23.641Z,33.61
2018-06-14T09:05:52.390Z,34.58
2018-06-14T09:08:21.069Z,34.63
2018-06-14T09:10:49.678Z,34.84
2018-06-14T09:13:18.298Z,34.66
2018-06-14T09:15:48.118Z,34.40
2018-06-14T09:18:17.077Z,34.57
2018-06-14T09:20:45.996Z,35.44
2018-06-14T09:23:14.699Z,36.05
2018-06-14T09:25:43.395Z,35.60
2018-06-14T09:28:12.017Z,35.37
2018-06-14T09:30:40.707Z,35.41
2018-06-14T09:33:09.306Z,34.54
2018-06-14T09:35:38.151Z,33.59
2018-06-14T09:38:06.876Z,32.96
2018-06-14T09:40:35.581Z,32.46
2018-06-14T09:43:04.272Z,31.89
2018-06-14T09:45:32.931Z,31.53
2018-06-14T09:48:01.956Z,31.50
2018-06-14T09:50:30.553Z,32.30
2018-06-14T09:52:59.204Z,32.46
2018-06-14T09:55:28.118Z,33.35
2018-06-14T09:57:56.792Z,34.34
2018-06-14T10:00:25.516Z,35.24
2018-06-14T10:02:54.161Z,35.53
2018-06-14T10:05:22.812Z,35.85
2018-06-14T10:07:51.852Z,35.40
2018-06-14T10:10:20.588Z,34.41
2018-06-14T10:12:49.259Z,34.18
2018-06-14T10:15:17.956Z,33.76
2018-06-14T10:17:46.680Z,33.34
2018-06-14T10:20:15.301Z,32.89
2018-06-14T10:22:45.252Z,33.49
2018-06-14T10:25:14.138Z,34.36
2018-06-14T10:27:42.849Z,35.04
2018-06-14T10:30:11.627Z,35.50
2018-06-14T10:32:40.180Z,35.87
2018-06-14T10:35:08.775Z,35.55
2018-06-14T10:37:37.463Z,34.97
2018-06-14T10:40:06.136Z,34.21
2018-06-14T10:42:34.816Z,33.66
2018-06-14T10:45:03.516Z,33.20
2018-06-14T10:47:32.117Z,32.82
2018-06-14T10:50:00.862Z,32.46
2018-06-14T10:52:29.510Z,32.54
2018-06-14T10:54:58.183Z,32.33
2018-06-14T10:57:26.780Z,31.82
2018-06-14T10:59:55.488Z,31.85
2018-06-14T11:02:24.184Z,31.92
2018-06-14T11:04:52.940Z,31.80
2018-06-14T11:07:21.646Z,31.59
2018-06-14T11:09:50.287Z,31.74
2018-06-14T11:12:18.972Z,31.78
2018-06-14T11:14:47.608Z,31.86
2018-06-14T11:17:16.183Z,32.40
2018-06-14T11:19:44.720Z,33.00
2018-06-14T11:22:13.311Z,33.44
2018-06-14T11:24:41.922Z,33.84
2018-06-14T11:27:10.487Z,33.82
2018-06-14T11:29:39.139Z,33.69
2018-06-14T11:32:07.952Z,33.52
2018-06-14T11:34:36.587Z,33.33
2018-06-14T11:37:05.205Z,33.38
2018-06-14T11:39:33.952Z,33.20
2018-06-14T11:42:02.706Z,32.95
2018-06-14T11:44:31.275Z,32.83
2018-06-14T11:46:59.903Z,32.62
2018-06-14T11:49:28.520Z,32.46
2018-06-14T11:51:57.664Z,32.46
2018-06-14T11:54:26.175Z,32.49
2018-06-14T11:56:54.891Z,32.49
2018-06-14T11:59:23.696Z,32.55
2018-06-14T12:01:53.022Z,32.47
2018-06-14T12:04:21.521Z,32.44
2018-06-14T12:06:50.268Z,32.50
2018-06-14T12:09:18.945Z,32.48
2018-06-14T12:11:47.571Z,32.21
2018-06-14T12:14:16.362Z,31.85
2018-06-14T12:16:45.092Z,31.50
2018-06-14T12:19:13.755Z,31.01
2018-06-14T12:21:42.346Z,31.00
2018-06-14T12:24:11.105Z,31.00
2018-06-14T12:26:39.734Z,31.08
2018-06-14T12:29:08.341Z,31.10
2018-06-14T12:31:37.383Z,31.01
2018-06-14T12:34:06.012Z,30.88
2018-06-14T12:36:34.562Z,30.84
2018-06-14T12:39:03.284Z,30.76
2018-06-14T12:41:31.955Z,30.77
2018-06-14T12:44:00.564Z,30.89
2018-06-14T12:46:29.192Z,31.07
2018-06-14T12:48:57.747Z,31.42
2018-06-14T12:51:26.440Z,31.81
2018-06-14T12:53:55.021Z,31.97
2018-06-14T12:56:23.588Z,31.99
2018-06-14T12:58:52.252Z,32.10
2018-06-14T13:01:20.789Z,32.27
2018-06-14T13:03:49.311Z,32.48
2018-06-14T13:06:17.926Z,32.63
2018-06-14T13:08:46.572Z,32.60
2018-06-14T13:11:15.192Z,32.33
2018-06-14T13:13:43.925Z,32.15
2018-06-14T13:16:12.787Z,32.07
2018-06-14T13:18:41.819Z,32.04
2018-06-14T13:21:10.638Z,32.11
2018-06-14T13:23:39.444Z,32.17
2018-06-14T13:26:08.289Z,32.12
2018-06-14T13:28:36.992Z,32.00
2018-06-14T13:31:05.789Z,31.82
2018-06-14T13:33:34.621Z,31.72
2018-06-14T13:36:03.545Z,31.67
2018-06-14T13:38:32.283Z,31.59
2018-06-14T13:41:01.200Z,31.48
2018-06-14T13:43:30.283Z,31.40
2018-06-14T13:45:59.179Z,31.30
2018-06-14T13:48:28.189Z,31.30
2018-06-14T13:50:57.140Z,31.34
2018-06-14T13:53:26.072Z,31.18
2018-06-14T13:55:54.888Z,30.98
2018-06-14T13:58:24.011Z,30.93
2018-06-14T14:00:53.745Z,30.57
2018-06-14T14:03:22.593Z,30.38
2018-06-14T14:05:51.423Z,30.28
2018-06-14T14:08:20.317Z,30.37
2018-06-14T14:10:52.426Z,30.42
2018-06-14T14:13:21.139Z,30.46
2018-06-14T14:15:49.825Z,30.55
2018-06-14T14:18:18.466Z,30.63
2018-06-14T14:20:47.277Z,30.65
2018-06-14T14:23:16.350Z,30.32
2018-06-14T14:25:45.036Z,30.23
2018-06-14T14:28:13.774Z,30.15
2018-06-14T14:30:42.441Z,30.16
2018-06-14T14:33:11.585Z,30.13
2018-06-14T14:35:40.588Z,29.92
2018-06-14T14:38:09.368Z,29.85
2018-06-14T14:40:38.061Z,29.74
2018-06-14T14:43:06.835Z,29.58
2018-06-14T14:45:35.371Z,29.42
2018-06-14T14:48:04.204Z,29.33
2018-06-14T14:50:32.930Z,29.25
2018-06-14T14:53:01.711Z,29.12
2018-06-14T14:55:30.486Z,28.97
2018-06-14T14:57:59.391Z,28.81
2018-06-14T15:00:28.352Z,28.67
2018-06-14T15:02:57.175Z,28.57
2018-06-14T15:05:26.114Z,28.44
2018-06-14T15:07:54.864Z,28.32
2018-06-14T15:10:23.666Z,28.22
2018-06-14T15:12:52.552Z,28.11
2018-06-14T15:15:21.215Z,28.00
2018-06-14T15:17:49.939Z,27.93
2018-06-14T15:20:18.567Z,27.84
2018-06-14T15:22:47.257Z,27.72
2018-06-14T15:25:16.013Z,27.57
2018-06-14T15:27:48.415Z,27.46
2018-06-14T15:30:17.083Z,27.33
2018-06-14T15:32:45.673Z,27.23
2018-06-14T15:35:14.452Z,27.14
2018-06-14T15:37:43.045Z,27.04
2018-06-14T15:40:11.608Z,26.90
2018-06-14T15:42:40.264Z,26.79
2018-06-14T15:45:09.025Z,26.67
2018-06-14T15:47:37.551Z,26.53
2018-06-14T15:50:06.170Z,26.40
2018-06-14T15:52:34.823Z,26.28
2018-06-14T15:55:14.724Z,26.17
2018-06-14T15:57:43.407Z,26.03
2018-06-14T16:00:12.388Z,25.93
2018-06-14T16:02:40.976Z,25.81
2018-06-14T16:05:09.867Z,25.68
2018-06-14T16:07:38.513Z,25.58
2018-06-14T16:10:07.080Z,25.47
2018-06-14T16:12:35.603Z,25.33
2018-06-14T16:15:04.441Z,25.20
2018-06-14T16:17:33.026Z,25.11
2018-06-14T16:20:02.761Z,25.03
2018-06-14T16:22:31.834Z,24.97
2018-06-14T16:25:00.537Z,24.92
2018-06-14T16:27:29.466Z,24.87
2018-06-14T16:29:58.080Z,24.82
2018-06-14T16:32:26.809Z,24.80
2018-06-14T16:34:55.307Z,24.76
2018-06-14T16:37:23.847Z,24.74
2018-06-14T16:39:52.446Z,24.69
2018-06-14T16:42:21.009Z,24.68
2018-06-14T16:44:49.627Z,24.66
2018-06-14T16:47:18.297Z,24.65
2018-06-14T16:49:46.966Z,24.61
2018-06-14T16:52:15.562Z,24.57
2018-06-14T16:54:44.359Z,24.56
2018-06-14T16:57:12.901Z,24.55
2018-06-14T16:59:41.801Z,24.50
2018-06-14T17:02:10.483Z,24.49
2018-06-14T17:04:39.148Z,24.45
2018-06-14T17:07:07.702Z,24.45
2018-06-14T17:09:36.429Z,24.43
2018-06-14T17:12:04.990Z,24.41
2018-06-14T17:14:33.539Z,24.38
2018-06-14T17:17:02.024Z,24.35
2018-06-14T17:19:30.761Z,24.29
2018-06-14T17:21:59.430Z,24.20
2018-06-14T17:24:28.180Z,24.11
2018-06-14T17:26:56.741Z,24.07
2018-06-14T17:29:25.698Z,24.00
2018-06-14T17:31:54.470Z,23.94
2018-06-14T17:34:23.287Z,23.91
2018-06-14T17:36:51.871Z,23.83
2018-06-14T17:39:20.590Z,23.79
2018-06-14T17:41:49.254Z,23.72
2018-06-14T17:44:17.915Z,23.67
2018-06-14T17:46:46.576Z,23.62
2018-06-14T17:49:15.514Z,23.61
2018-06-14T17:51:44.199Z,23.59
2018-06-14T17:54:14.258Z,23.50
2018-06-14T17:56:43.110Z,23.46
2018-06-14T17:59:12.589Z,23.39
2018-06-14T18:01:41.866Z,23.37
2018-06-14T18:04:10.774Z,23.35
2018-06-14T18:06:39.900Z,23.30
2018-06-14T18:09:09.952Z,23.25
2018-06-14T18:11:39.280Z,23.14
2018-06-14T18:14:09.097Z,23.07
2018-06-14T18:16:37.969Z,23.01
2018-06-14T18:19:06.711Z,23.03
2018-06-14T18:21:38.368Z,23.06
2018-06-14T18:24:08.707Z,23.08
2018-06-14T18:26:41.458Z,23.08
2018-06-14T18:29:14.902Z,23.09
2018-06-14T18:31:43.699Z,23.10
2018-06-14T18:34:12.445Z,23.09
2018-06-14T18:36:41.332Z,23.05
2018-06-14T18:39:11.476Z,23.01
2018-06-14T18:41:40.317Z,22.94
2018-06-14T18:44:13.936Z,22.91
2018-06-14T18:46:46.037Z,22.87
2018-06-14T18:49:16.690Z,22.87
2018-06-14T18:51:45.553Z,22.85
2018-06-14T18:54:16.185Z,22.83
2018-06-14T18:56:44.860Z,22.81
2018-06-14T18:59:13.761Z,22.83
2018-06-14T19:01:42.873Z,22.85
2018-06-14T19:04:12.244Z,22.84
2018-06-14T19:06:41.126Z,22.82
2018-06-14T19:09:10.849Z,22.80
2018-06-14T19:11:41.313Z,22.78
2018-06-14T19:14:10.456Z,22.75
2018-06-14T19:16:39.507Z,22.70
2018-06-14T19:19:08.262Z,22.70
2018-06-14T19:21:37.023Z,22.68
2018-06-14T19:24:06.596Z,22.65
2018-06-14T19:26:35.439Z,22.65
2018-06-14T19:29:04.243Z,22.65
2018-06-14T19:31:33.154Z,22.63
2018-06-14T19:34:01.892Z,22.60
2018-06-14T19:36:30.655Z,22.61
2018-06-14T19:39:00.153Z,22.60
2018-06-14T19:41:28.950Z,22.59
2018-06-14T19:43:57.704Z,22.55
2018-06-14T19:46:26.445Z,22.53
2018-06-14T19:48:55.552Z,22.55
2018-06-14T19:51:24.312Z,22.54
2018-06-14T19:53:53.079Z,22.52
2018-06-14T19:56:21.707Z,22.52
2018-06-14T19:58:50.319Z,22.55
2018-06-14T20:01:19.033Z,22.55
2018-06-14T20:03:47.645Z,22.52
2018-06-14T20:06:16.308Z,22.48
2018-06-14T20:08:45.096Z,22.45
2018-06-14T20:11:14.029Z,22.40
2018-06-14T20:13:42.652Z,22.37
2018-06-14T20:16:11.329Z,22.34
2018-06-14T20:18:39.986Z,22.27
2018-06-14T20:21:08.583Z,22.22
2018-06-14T20:23:37.412Z,22.18
2018-06-14T20:26:06.134Z,22.16
2018-06-14T20:28:34.671Z,22.14
2018-06-14T20:31:03.223Z,22.10
2018-06-14T20:33:31.879Z,22.01
2018-06-14T20:36:00.458Z,21.99
2018-06-14T20:38:29.291Z,21.98
2018-06-14T20:40:58.176Z,21.92
2018-06-14T20:43:27.301Z,21.93
2018-06-14T20:45:56.367Z,21.92
2018-06-14T20:48:25.402Z,21.89
2018-06-14T20:50:54.181Z,21.87
2018-06-14T20:53:22.726Z,21.87
2018-06-14T20:55:51.888Z,21.87
2018-06-14T20:58:20.431Z,21.87
2018-06-14T21:00:48.982Z,21.87
2018-06-14T21:03:17.631Z,21.85
2018-06-14T21:05:46.201Z,21.84
2018-06-14T21:08:14.707Z,21.84
2018-06-14T21:10:43.313Z,21.85
2018-06-14T21:13:11.823Z,21.89
2018-06-14T21:15:40.432Z,21.89
2018-06-14T21:18:08.973Z,21.88
2018-06-14T21:20:37.581Z,21.91
2018-06-14T21:23:06.081Z,21.92
2018-06-14T21:25:34.557Z,21.91
2018-06-14T21:28:03.088Z,21.88
2018-06-14T21:30:31.556Z,21.88
2018-06-14T21:33:00.044Z,21.87
2018-06-14T21:35:28.879Z,21.85
2018-06-14T21:37:57.423Z,21.87
2018-06-14T21:40:26.528Z,21.87
2018-06-14T21:42:55.360Z,21.87
2018-06-14T21:45:23.944Z,21.89
2018-06-14T21:47:52.680Z,21.92
2018-06-14T21:50:21.288Z,21.92
2018-06-14T21:52:50.072Z,21.93
2018-06-14T21:55:19.709Z,21.91
2018-06-14T21:57:48.435Z,21.91
2018-06-14T22:00:17.052Z,21.86
2018-06-14T22:02:50.869Z,21.86
2018-06-14T22:05:19.622Z,21.86
2018-06-14T22:07:48.150Z,21.88
2018-06-14T22:10:16.668Z,21.89
2018-06-14T22:12:45.398Z,21.92
2018-06-14T22:15:14.015Z,21.94
2018-06-14T22:17:42.584Z,21.95
2018-06-14T22:20:11.108Z,21.96
2018-06-14T22:22:39.714Z,21.92
2018-06-14T22:25:08.252Z,21.92
2018-06-14T22:27:41.616Z,21.94
2018-06-14T22:30:11.769Z,21.95
2018-06-14T22:32:41.298Z,21.99
2018-06-14T22:35:24.361Z,22.00
2018-06-14T22:37:53.082Z,21.99
2018-06-14T22:40:21.816Z,21.98
2018-06-14T22:42:50.414Z,21.95
2018-06-14T22:45:18.948Z,21.94
2018-06-14T22:47:47.578Z,21.94
2018-06-14T22:50:22.109Z,21.96
2018-06-14T22:52:55.228Z,21.98
2018-06-14T22:55:24.624Z,21.97
2018-06-14T22:57:53.171Z,22.00
2018-06-14T23:02:28.319Z,22.00
2018-06-14T23:04:56.955Z,21.97
2018-06-14T23:07:25.545Z,21.96
2018-06-14T23:10:13.863Z,21.96
2018-06-14T23:12:42.470Z,21.95
2018-06-14T23:15:11.217Z,21.94
2018-06-14T23:17:39.723Z,21.95
2018-06-14T23:20:08.247Z,21.97
2018-06-14T23:22:36.776Z,21.98
2018-06-14T23:25:05.312Z,21.98
2018-06-14T23:27:34.003Z,21.99
2018-06-14T23:30:02.620Z,21.97
2018-06-14T23:32:31.236Z,21.94
2018-06-14T23:34:59.871Z,21.93
2018-06-14T23:37:28.519Z,21.92
2018-06-14T23:39:57.791Z,21.93
2018-06-14T23:42:26.383Z,21.94
2018-06-14T23:44:56.397Z,21.95
2018-06-14T23:47:32.225Z,21.97
2018-06-14T23:50:09.841Z,21.96
2018-06-14T23:52:38.919Z,21.92
2018-06-14T23:55:07.525Z,21.92
2018-06-14T23:57:36.265Z,21.94
